昆明 の空港の天気 - METARとTAF

昆明巫家餽国際空港 ( ZPPP / KMG ) - 中華人民共和国 雲南省昆明市
飛行場実況気象(Metar)
観測時間02/28 08:00 CST (02/28 00:00 UTC)
風向・風速不定 1m/s
視程2000m
天気現象もや
全天の4割程度の雲 雲底高度 60m
全天の4割程度の雲 雲底高度 120m
全天を覆う雲 雲底高度 610m
気温6℃
湿度100%
気圧1022hPa
METARZPPP 280000Z VRB01MPS 2000 R22/0650N R21/P2000 BR SCT002 SCT004 OVC020 06/06 Q1022 BECMG TL0130 3100
過去の天気等 Google飛行場航空写真 Wunderground天気予報

過去48時間のMETAR

飛行場予報(TAF)
発表時間: 2/28 03:05 CST (2/27 19:05 UTC)
予報対象時間: 28日8時 CST ~ 1日8時 CST
風向・風速南西 5m/s
視程4,000m
天気現象もや
全天の4割程度の雲 雲底高度 150m
全天を覆う雲 雲底高度 790m
TAF ZPPP 271905Z 2800/2824 22005MPS 4000 BR SCT005 OVC026 TX16/2808Z TN04/2823Z